Time;durP1;ratioP1;P1;durP2;ratioP2;P2;SDS_P1;SDS_P2;PMS_P1;PMS_P2;Temp;Humidity;BMP_temperature;BMP_pressure;BME280_temperature;BME280_humidity;BME280_pressure;Samples;Min_cycle;Max_cycle;Signal;HPM_P1;HPM_P2
2023/11/02 00:00:34;;;;;;;7.70;5.50;;;;;;;10.37;75.00;99654.81;105408;1263;60427;-74
2023/11/02 00:03:05;;;;;;;6.90;5.70;;;;;;;10.36;74.99;99657.63;105308;1254;64023;-68
2023/11/02 00:05:42;;;;;;;6.70;5.50;;;;;;;10.33;75.02;99656.97;105339;1262;60456;-70
2023/11/02 00:08:10;;;;;;;6.30;5.70;;;;;;;10.30;75.04;99658.95;105466;1257;61374;-67
2023/11/02 00:10:38;;;;;;;7.60;5.90;;;;;;;10.29;75.04;99664.01;105428;1260;64899;-67
2023/11/02 00:13:05;;;;;;;7.20;6.10;;;;;;;10.30;75.14;99665.64;105069;1263;60392;-67
2023/11/02 00:15:32;;;;;;;6.90;6.10;;;;;;;10.31;75.23;99663.25;105894;1258;64093;-68
2023/11/02 00:17:59;;;;;;;7.10;5.90;;;;;;;10.30;75.32;99664.03;105410;1262;60550;-68
2023/11/02 00:20:31;;;;;;;7.70;6.20;;;;;;;10.30;75.38;99661.48;105367;1260;60460;-68
2023/11/02 00:22:58;;;;;;;7.30;6.10;;;;;;;10.30;75.43;99659.67;105165;1257;65226;-68
2023/11/02 00:25:47;;;;;;;7.70;6.40;;;;;;;10.29;75.51;99660.84;105521;1260;60510;-70
2023/11/02 00:28:14;;;;;;;6.20;5.60;;;;;;;10.36;75.28;99661.48;105618;1254;64584;-69
2023/11/02 00:30:44;;;;;;;6.30;5.60;;;;;;;10.36;75.22;99662.16;105545;1260;60434;-69
2023/11/02 00:33:15;;;;;;;7.70;6.00;;;;;;;10.37;75.25;99669.27;105128;1255;60540;-68
2023/11/02 00:35:48;;;;;;;7.90;5.80;;;;;;;10.37;75.10;99670.19;105360;1262;65131;-67
2023/11/02 00:38:22;;;;;;;8.10;5.80;;;;;;;10.34;74.98;99672.61;105581;1257;60438;-69
2023/11/02 00:40:49;;;;;;;8.30;5.60;;;;;;;10.29;74.97;99671.89;105106;1260;302129;-70
2023/11/02 00:43:18;;;;;;;10.80;6.00;;;;;;;10.25;74.96;99671.62;105262;1260;60387;-69
2023/11/02 00:45:46;;;;;;;7.00;5.70;;;;;;;10.21;75.01;99673.85;105557;1254;60438;-68
2023/11/02 00:48:22;;;;;;;6.20;5.60;;;;;;;10.19;74.99;99674.05;105330;1255;65640;-70
2023/11/02 00:51:28;;;;;;;6.90;5.60;;;;;;;10.17;74.93;99672.77;105409;1259;60459;-69
2023/11/02 00:53:58;;;;;;;7.90;6.30;;;;;;;10.14;74.87;99670.07;105434;1256;63920;-68
2023/11/02 00:56:36;;;;;;;8.30;5.70;;;;;;;10.10;74.80;99670.97;105626;1262;60448;-68
2023/11/02 00:59:04;;;;;;;6.90;6.20;;;;;;;10.06;74.77;99667.51;105229;1258;60553;-68
2023/11/02 01:01:32;;;;;;;13.60;6.00;;;;;;;10.03;74.81;99666.67;105341;1264;64597;-67
2023/11/02 01:04:44;;;;;;;7.90;5.80;;;;;;;9.99;74.75;99668.90;105514;1254;60469;-67
2023/11/02 01:07:12;;;;;;;6.90;5.70;;;;;;;9.96;74.79;99670.84;105465;1259;64112;-69
2023/11/02 01:09:49;;;;;;;8.30;5.60;;;;;;;9.93;74.77;99669.52;105295;1260;60355;-67
2023/11/02 01:12:42;;;;;;;7.90;5.80;;;;;;;9.88;74.79;99666.60;105772;1260;60547;-73
2023/11/02 01:15:26;;;;;;;7.40;5.70;;;;;;;9.83;74.88;99664.54;105792;1259;65250;-73
2023/11/02 01:17:53;;;;;;;7.70;5.50;;;;;;;9.81;75.01;99664.23;105519;1254;60558;-67
2023/11/02 01:20:59;;;;;;;6.70;5.20;;;;;;;9.79;74.99;99662.67;105661;1254;63838;-67
2023/11/02 01:23:27;;;;;;;6.40;5.40;;;;;;;9.75;74.91;99667.69;105274;1266;60435;-67
2023/11/02 01:25:54;;;;;;;7.60;6.40;;;;;;;9.70;74.95;99670.02;105285;1264;60649;-67
2023/11/02 01:28:22;;;;;;;6.90;6.10;;;;;;;9.67;74.96;99674.91;105356;1259;65203;-68
2023/11/02 01:30:59;;;;;;;6.90;5.60;;;;;;;9.64;74.98;99679.77;105469;1260;60472;-67
2023/11/02 01:33:36;;;;;;;8.80;6.00;;;;;;;9.60;74.93;99677.65;105391;1259;63866;-68
2023/11/02 01:36:05;;;;;;;9.00;6.20;;;;;;;9.56;75.07;99680.62;105201;1260;60438;-69
2023/11/02 01:38:33;;;;;;;6.60;5.90;;;;;;;9.53;75.13;99683.33;105245;1257;60451;-68
2023/11/02 01:41:09;;;;;;;8.90;5.80;;;;;;;9.51;75.08;99685.66;105620;1261;65037;-67
2023/11/02 01:43:42;;;;;;;7.20;5.60;;;;;;;9.49;75.10;99689.73;105535;1260;60573;-67
2023/11/02 01:46:20;;;;;;;6.60;5.70;;;;;;;9.47;75.11;99690.70;105335;1258;64054;-67
2023/11/02 01:48:49;;;;;;;10.10;6.40;;;;;;;9.47;75.14;99692.34;105461;1261;60466;-66
2023/11/02 01:51:37;;;;;;;6.50;5.80;;;;;;;9.44;75.17;99692.73;105469;1254;60370;-68
2023/11/02 01:54:17;;;;;;;11.20;5.70;;;;;;;9.41;75.08;99694.71;105415;1254;64011;-67
2023/11/02 01:56:58;;;;;;;8.40;5.80;;;;;;;9.39;74.99;99699.01;105311;1257;60526;-69
2023/11/02 01:59:33;;;;;;;5.90;5.30;;;;;;;9.35;75.10;99700.72;105157;1254;63816;-68
2023/11/02 02:02:15;;;;;;;6.60;5.50;;;;;;;9.32;75.13;99705.20;105152;1258;60419;-68
2023/11/02 02:05:00;;;;;;;9.00;5.60;;;;;;;9.31;75.08;99702.81;105267;1256;60466;-68
2023/11/02 02:07:55;;;;;;;6.80;5.80;;;;;;;9.28;75.05;99707.63;105278;1261;65240;-67
2023/11/02 02:10:26;;;;;;;9.40;5.70;;;;;;;9.26;75.08;99712.20;105351;1260;60495;-67
2023/11/02 02:13:34;;;;;;;7.50;5.70;;;;;;;9.23;75.02;99714.41;105410;1264;64065;-67
2023/11/02 02:16:08;;;;;;;6.10;5.50;;;;;;;9.20;75.08;99714.65;105519;1260;60432;-68
2023/11/02 02:18:37;;;;;;;;;;;;;;;9.18;75.03;99715.87;105457;1260;60477;-67
2023/11/02 02:21:16;;;;;;;6.00;5.40;;;;;;;9.15;75.02;99717.49;105588;1260;65728;-68
2023/11/02 02:23:55;;;;;;;8.40;6.10;;;;;;;9.12;75.03;99720.70;105222;1261;60229;-67
2023/11/02 02:26:40;;;;;;;10.30;6.20;;;;;;;9.09;74.96;99719.21;105359;1254;62528;-67
2023/11/02 02:29:13;;;;;;;9.70;6.20;;;;;;;9.07;75.01;99725.77;105299;1258;60474;-67
2023/11/02 02:32:08;;;;;;;7.00;5.70;;;;;;;9.04;74.88;99725.27;105080;1254;62033;-68
2023/11/02 02:34:47;;;;;;;8.00;5.90;;;;;;;9.03;74.88;99730.14;105236;1260;64964;-70
2023/11/02 02:37:18;;;;;;;7.80;5.50;;;;;;;9.00;74.81;99732.44;105335;1254;60508;-67
2023/11/02 02:39:46;;;;;;;5.90;5.30;;;;;;;8.98;74.77;99733.55;105512;1254;63946;-70
2023/11/02 02:42:16;;;;;;;8.90;5.20;;;;;;;8.95;74.70;99736.92;105549;1262;60356;-67
2023/11/02 02:44:43;;;;;;;8.00;5.70;;;;;;;8.93;74.64;99740.58;105593;1264;60492;-67
2023/11/02 02:47:10;;;;;;;7.90;6.30;;;;;;;8.92;74.61;99742.98;105312;1264;65210;-68
2023/11/02 02:49:42;;;;;;;6.80;6.10;;;;;;;8.88;74.47;99744.48;105519;1261;60441;-68
2023/11/02 02:52:13;;;;;;;10.40;8.20;;;;;;;8.85;74.45;99746.66;105674;1260;62598;-67
2023/11/02 02:54:42;;;;;;;13.20;8.60;;;;;;;8.82;74.31;99744.52;105595;1255;60689;-71
2023/11/02 02:57:09;;;;;;;16.50;10.00;;;;;;;8.78;74.36;99745.02;105465;1264;60348;-68
2023/11/02 02:59:39;;;;;;;17.60;11.90;;;;;;;8.74;74.36;99746.73;105527;1260;65304;-67
2023/11/02 03:02:07;;;;;;;18.40;12.40;;;;;;;8.71;74.29;99746.14;105568;1260;62031;-69
2023/11/02 03:04:35;;;;;;;21.40;13.10;;;;;;;8.68;74.31;99745.85;105543;1254;63762;-67
2023/11/02 03:07:02;;;;;;;31.40;16.90;;;;;;;8.65;74.32;99751.73;105703;1254;60402;-66
2023/11/02 03:09:31;;;;;;;30.60;17.10;;;;;;;8.62;74.24;99754.73;105500;1257;60550;-66
2023/11/02 03:12:07;;;;;;;40.10;19.50;;;;;;;8.59;74.34;99754.07;105363;1254;64024;-66
2023/11/02 03:14:35;;;;;;;27.80;14.70;;;;;;;8.58;74.34;99755.95;105649;1265;60598;-69
2023/11/02 03:17:06;;;;;;;23.00;12.90;;;;;;;8.55;74.34;99762.33;105768;1254;64005;-68
2023/11/02 03:19:46;;;;;;;19.90;11.50;;;;;;;8.52;74.28;99762.53;105337;1262;60533;-67
2023/11/02 03:22:19;;;;;;;14.30;9.60;;;;;;;8.49;74.25;99760.17;105962;1260;60351;-68
2023/11/02 03:25:01;;;;;;;13.70;9.10;;;;;;;8.45;74.22;99765.05;105720;1255;63657;-68
2023/11/02 03:27:37;;;;;;;12.00;8.20;;;;;;;8.42;74.22;99771.65;105452;1254;60465;-68
2023/11/02 03:30:15;;;;;;;10.10;6.70;;;;;;;8.39;74.19;99775.73;105513;1257;64273;-69
2023/11/02 03:33:04;;;;;;;7.10;5.80;;;;;;;8.37;74.14;99773.63;105545;1256;61038;-68
2023/11/02 03:35:36;;;;;;;6.40;5.60;;;;;;;8.32;74.11;99779.23;105555;1254;60566;-67
2023/11/02 03:38:22;;;;;;;5.80;4.90;;;;;;;8.29;74.11;99777.55;105504;1255;65170;-70
2023/11/02 03:41:20;;;;;;;5.80;5.20;;;;;;;8.24;74.17;99775.44;105592;1254;60491;-67
2023/11/02 03:43:56;;;;;;;5.50;5.00;;;;;;;8.08;74.51;99780.05;105555;1254;64095;-66
2023/11/02 03:46:33;;;;;;;7.10;4.80;;;;;;;8.02;74.69;99781.95;105483;1255;60447;-70
2023/11/02 03:49:12;;;;;;;9.10;5.40;;;;;;;7.99;74.74;99785.35;105616;1262;60452;-67
2023/11/02 03:52:02;;;;;;;8.10;5.50;;;;;;;7.97;74.81;99785.69;105561;1257;64107;-67
2023/11/02 03:54:33;;;;;;;7.40;5.60;;;;;;;7.95;74.91;99788.83;105612;1254;60508;-68
2023/11/02 03:57:00;;;;;;;7.70;5.40;;;;;;;7.94;74.96;99790.15;105571;1254;63820;-66
2023/11/02 03:59:52;;;;;;;7.40;5.50;;;;;;;7.92;75.00;99787.33;105653;1254;60319;-67
2023/11/02 04:02:28;;;;;;;10.50;5.20;;;;;;;7.91;75.18;99786.31;105526;1254;60449;-67
2023/11/02 04:05:05;;;;;;;7.70;5.30;;;;;;;7.89;75.22;99784.70;105498;1257;65194;-67
2023/11/02 04:07:38;;;;;;;7.40;5.50;;;;;;;7.88;75.27;99783.70;105609;1254;60658;-74
2023/11/02 04:10:07;;;;;;;6.40;5.40;;;;;;;7.88;75.30;99784.61;105275;1256;63858;-71
2023/11/02 04:12:56;;;;;;;7.90;5.40;;;;;;;7.87;75.29;99788.05;105471;1257;60517;-67
2023/11/02 04:15:23;;;;;;;7.60;6.10;;;;;;;7.85;75.27;99786.94;105375;1254;60489;-68
2023/11/02 04:17:51;;;;;;;9.10;6.30;;;;;;;7.85;75.32;99789.95;105450;1261;64916;-68
2023/11/02 04:20:17;;;;;;;9.80;5.90;;;;;;;7.84;75.28;99792.83;105660;1254;60521;-67
2023/11/02 04:22:44;;;;;;;8.70;5.80;;;;;;;7.84;75.29;99797.77;105583;1254;63884;-67
2023/11/02 04:25:11;;;;;;;8.50;5.60;;;;;;;7.84;75.22;99802.61;105626;1254;60348;-67
2023/11/02 04:27:38;;;;;;;10.00;5.60;;;;;;;7.84;75.19;99802.48;105745;1259;60550;-68
2023/11/02 04:30:06;;;;;;;9.00;5.20;;;;;;;7.80;75.06;99805.90;105571;1257;65328;-69
2023/11/02 04:32:33;;;;;;;8.60;5.10;;;;;;;7.78;74.97;99810.83;105505;1254;60462;-67
2023/11/02 04:35:01;;;;;;;7.50;5.70;;;;;;;7.74;74.91;99813.42;105574;1254;64103;-68
2023/11/02 04:37:28;;;;;;;6.40;5.00;;;;;;;7.71;74.90;99815.01;105540;1254;60383;-67
2023/11/02 04:39:54;;;;;;;6.30;4.60;;;;;;;7.69;74.87;99816.02;105418;1259;60437;-67
2023/11/02 04:42:22;;;;;;;7.40;5.00;;;;;;;7.68;74.79;99818.11;105389;1254;64952;-68
2023/11/02 04:44:51;;;;;;;6.20;4.90;;;;;;;7.66;74.81;99822.42;105123;1254;60477;-67
2023/11/02 04:47:18;;;;;;;8.00;5.40;;;;;;;7.63;74.66;99824.09;105558;1254;63871;-71
2023/11/02 04:49:45;;;;;;;6.90;5.70;;;;;;;7.59;74.67;99826.41;105565;1254;60354;-67
2023/11/02 04:52:11;;;;;;;12.20;8.10;;;;;;;7.58;74.68;99828.95;105495;1254;60577;-67
2023/11/02 04:54:38;;;;;;;10.40;7.70;;;;;;;7.56;74.68;99827.56;105432;1257;65356;-66
2023/11/02 04:57:05;;;;;;;11.60;7.20;;;;;;;7.54;74.68;99831.75;105320;1261;60575;-68
2023/11/02 04:59:36;;;;;;;8.80;6.00;;;;;;;7.52;74.63;99834.69;105739;1254;64010;-67
2023/11/02 05:02:03;;;;;;;11.70;6.90;;;;;;;7.51;74.64;99841.30;105453;1257;60425;-69
2023/11/02 05:04:30;;;;;;;11.50;6.90;;;;;;;7.49;74.66;99841.45;105584;1254;60532;-67
2023/11/02 05:06:57;;;;;;;8.70;6.40;;;;;;;7.47;74.65;99839.80;105630;1260;65223;-67
2023/11/02 05:09:25;;;;;;;8.80;6.10;;;;;;;7.46;74.70;99839.89;105496;1254;60459;-67
2023/11/02 05:11:52;;;;;;;11.00;7.50;;;;;;;7.45;74.64;99842.61;105637;1254;64002;-67
2023/11/02 05:14:19;;;;;;;9.00;6.60;;;;;;;7.44;74.66;99848.78;105737;1256;60554;-67
2023/11/02 05:16:46;;;;;;;9.60;6.60;;;;;;;7.43;74.62;99850.96;105122;1257;60528;-67
2023/11/02 05:19:12;;;;;;;10.20;6.40;;;;;;;7.41;74.66;99851.42;105556;1255;65118;-66
2023/11/02 05:21:39;;;;;;;8.60;6.10;;;;;;;7.41;74.63;99853.00;105499;1254;60570;-67
2023/11/02 05:24:09;;;;;;;6.80;5.50;;;;;;;7.42;74.74;99848.55;105813;1254;63820;-68
2023/11/02 05:26:39;;;;;;;6.40;5.10;;;;;;;7.53;74.46;99846.56;105205;1254;60659;-71
2023/11/02 05:29:06;;;;;;;7.60;5.10;;;;;;;7.59;74.23;99852.00;105138;1261;60536;-67
2023/11/02 05:31:33;;;;;;;5.30;4.30;;;;;;;7.62;74.12;99853.04;105413;1255;64231;-69
2023/11/02 05:34:00;;;;;;;4.80;4.20;;;;;;;7.65;74.01;99853.52;105331;1254;60981;-68
2023/11/02 05:36:27;;;;;;;6.60;4.30;;;;;;;7.68;73.97;99855.19;105761;1254;64090;-67
2023/11/02 05:38:54;;;;;;;5.70;4.40;;;;;;;7.71;73.78;99858.35;105435;1254;60460;-67
2023/11/02 05:41:22;;;;;;;8.00;4.60;;;;;;;7.74;73.65;99865.98;105385;1254;60566;-68
2023/11/02 05:43:49;;;;;;;9.00;4.30;;;;;;;7.76;73.53;99864.58;105521;1254;65220;-69
2023/11/02 05:46:16;;;;;;;6.30;4.70;;;;;;;7.80;73.39;99866.23;105498;1257;60552;-66
2023/11/02 05:48:42;;;;;;;6.80;4.60;;;;;;;7.83;73.32;99868.95;105288;1257;63910;-66
2023/11/02 05:51:09;;;;;;;6.30;3.90;;;;;;;7.88;73.11;99870.16;105256;1254;60484;-67
2023/11/02 05:53:36;;;;;;;7.20;4.10;;;;;;;7.92;72.89;99868.67;105175;1254;60418;-66
2023/11/02 05:56:04;;;;;;;4.70;3.80;;;;;;;7.95;72.73;99868.05;105283;1254;65050;-67
2023/11/02 05:58:31;;;;;;;5.50;3.80;;;;;;;8.00;72.58;99869.39;105463;1262;60577;-67
2023/11/02 06:00:58;;;;;;;6.30;3.90;;;;;;;8.05;72.23;99872.74;105460;1254;63849;-67
2023/11/02 06:03:25;;;;;;;5.20;3.60;;;;;;;8.09;72.08;99871.55;105395;1254;60469;-68
2023/11/02 06:05:52;;;;;;;4.00;3.20;;;;;;;8.14;71.85;99874.87;105503;1254;60368;-67
2023/11/02 06:08:19;;;;;;;4.00;3.10;;;;;;;8.16;71.46;99873.95;105250;1255;63860;-66
2023/11/02 06:10:46;;;;;;;6.40;3.20;;;;;;;8.20;71.10;99873.12;105509;1258;60459;-66
2023/11/02 06:13:13;;;;;;;4.90;2.90;;;;;;;8.25;70.82;99875.05;105579;1254;66141;-67
2023/11/02 06:15:40;;;;;;;4.00;2.70;;;;;;;8.28;70.55;99873.17;105560;1259;60421;-67
2023/11/02 06:18:07;;;;;;;3.60;2.70;;;;;;;8.31;70.11;99870.36;105985;1254;61178;-67
2023/11/02 06:20:34;;;;;;;3.20;2.40;;;;;;;8.35;69.84;99866.06;105700;1255;65273;-67
2023/11/02 06:23:02;;;;;;;3.50;2.70;;;;;;;8.39;69.84;99869.38;105397;1260;60479;-69
2023/11/02 06:25:29;;;;;;;4.50;2.50;;;;;;;8.45;69.74;99876.81;105437;1255;64421;-68
2023/11/02 06:27:56;;;;;;;3.60;2.80;;;;;;;8.50;69.52;99883.09;105468;1262;60393;-67
2023/11/02 06:30:24;;;;;;;2.90;2.50;;;;;;;8.56;69.40;99888.23;105330;1254;60488;-67
2023/11/02 06:32:52;;;;;;;3.50;2.60;;;;;;;8.61;69.03;99889.92;105553;1254;65291;-67
2023/11/02 06:35:19;;;;;;;4.50;2.80;;;;;;;8.66;68.62;99893.61;105692;1254;60353;-67
2023/11/02 06:37:58;;;;;;;3.60;3.00;;;;;;;8.69;68.31;99894.23;105461;1254;64024;-67
2023/11/02 06:40:26;;;;;;;3.80;2.70;;;;;;;8.76;68.02;99893.70;105540;1256;60445;-67
2023/11/02 06:42:55;;;;;;;3.90;2.90;;;;;;;8.81;67.84;99896.79;105220;1262;61092;-67
2023/11/02 06:45:22;;;;;;;4.20;2.70;;;;;;;8.88;67.63;99901.64;105371;1260;65031;-68
2023/11/02 06:47:50;;;;;;;3.10;2.30;;;;;;;8.96;67.22;99896.80;105228;1254;60364;-68
2023/11/02 06:50:17;;;;;;;3.80;2.60;;;;;;;9.03;67.08;99900.29;105544;1260;64140;-67
2023/11/02 06:52:44;;;;;;;3.50;2.20;;;;;;;9.08;66.57;99906.22;105616;1254;60609;-70
2023/11/02 06:55:11;;;;;;;4.40;2.30;;;;;;;9.12;66.26;99906.92;105578;1254;60540;-68
2023/11/02 06:57:38;;;;;;;6.90;2.80;;;;;;;9.18;66.24;99912.59;105701;1257;65218;-67
2023/11/02 07:00:09;;;;;;;3.30;2.50;;;;;;;9.25;65.94;99911.34;105707;1254;60447;-74
2023/11/02 07:02:36;;;;;;;3.70;2.20;;;;;;;9.32;65.91;99913.06;105604;1259;62706;-67
2023/11/02 07:05:04;;;;;;;5.60;2.50;;;;;;;9.38;65.33;99916.59;105709;1254;60362;-68
2023/11/02 07:07:33;;;;;;;4.40;2.30;;;;;;;9.42;65.00;99920.98;105275;1255;60625;-68
2023/11/02 07:10:05;;;;;;;3.00;2.40;;;;;;;9.50;65.03;99919.83;105724;1259;65349;-68
2023/11/02 07:12:32;;;;;;;3.60;2.50;;;;;;;9.57;64.88;99922.05;105378;1254;60559;-68
2023/11/02 07:14:59;;;;;;;7.30;3.60;;;;;;;9.63;64.52;99925.61;105550;1254;64476;-69
2023/11/02 07:17:26;;;;;;;5.00;3.10;;;;;;;9.71;64.39;99927.21;105416;1254;60334;-68
2023/11/02 07:19:53;;;;;;;5.20;3.20;;;;;;;9.81;64.30;99931.84;106031;1254;60378;-67
2023/11/02 07:22:20;;;;;;;4.50;3.20;;;;;;;9.89;63.55;99937.45;105565;1257;65002;-69
2023/11/02 07:24:47;;;;;;;3.90;2.50;;;;;;;9.96;63.25;99938.45;105495;1257;60322;-69
2023/11/02 07:27:14;;;;;;;4.90;2.20;;;;;;;10.05;62.74;99938.30;105475;1254;63847;-68
2023/11/02 07:29:41;;;;;;;3.60;2.00;;;;;;;10.12;62.59;99941.73;105717;1254;60341;-68
2023/11/02 07:32:10;;;;;;;3.60;2.00;;;;;;;10.19;62.14;99941.45;105533;1254;60506;-71
2023/11/02 07:34:37;;;;;;;4.10;1.90;;;;;;;10.25;61.65;99940.42;105563;1259;65338;-68
2023/11/02 07:37:04;;;;;;;3.00;2.00;;;;;;;10.30;61.20;99933.96;105199;1256;60454;-69
2023/11/02 07:39:33;;;;;;;3.60;2.40;;;;;;;10.36;61.01;99933.92;105547;1258;63899;-69
2023/11/02 07:42:02;;;;;;;3.30;2.20;;;;;;;10.41;60.93;99934.68;105534;1256;60415;-67
2023/11/02 07:44:31;;;;;;;10.30;2.30;;;;;;;10.48;60.96;99927.73;105514;1254;60367;-67
2023/11/02 07:46:59;;;;;;;3.00;2.10;;;;;;;10.58;61.10;99929.91;105397;1257;65216;-69
2023/11/02 07:49:26;;;;;;;3.30;1.90;;;;;;;10.66;60.65;99926.77;105550;1254;60562;-67
2023/11/02 07:51:55;;;;;;;3.30;2.00;;;;;;;10.71;60.51;99932.08;105130;1255;63702;-69
2023/11/02 07:54:22;;;;;;;14.40;8.70;;;;;;;10.77;60.20;99934.21;105529;1260;60545;-69
2023/11/02 07:56:49;;;;;;;4.60;3.60;;;;;;;10.81;60.22;99933.50;105557;1259;60539;-68
2023/11/02 07:59:16;;;;;;;3.20;2.10;;;;;;;10.87;60.35;99936.80;105452;1259;65105;-69
2023/11/02 08:01:43;;;;;;;4.00;2.10;;;;;;;10.96;60.47;99937.80;105523;1254;60446;-69
2023/11/02 08:04:10;;;;;;;4.00;2.30;;;;;;;11.03;59.97;99931.37;105586;1254;62462;-74
2023/11/02 08:06:37;;;;;;;44.80;38.90;;;;;;;11.07;59.89;99927.70;106104;1254;60527;-70
2023/11/02 08:09:05;;;;;;;9.80;6.50;;;;;;;11.14;60.01;99930.74;105691;1254;60502;-70
2023/11/02 08:11:42;;;;;;;10.70;4.10;;;;;;;11.24;60.13;99933.02;105577;1256;65207;-68
2023/11/02 08:14:10;;;;;;;5.00;3.70;;;;;;;11.34;60.11;99935.15;105885;1258;60983;-65
2023/11/02 08:16:37;;;;;;;5.40;3.50;;;;;;;11.43;59.97;99944.38;105438;1255;63916;-67
2023/11/02 08:19:04;;;;;;;6.50;3.00;;;;;;;11.50;59.05;99945.02;105971;1254;60490;-71
2023/11/02 08:21:31;;;;;;;8.70;3.20;;;;;;;11.54;58.62;99946.02;105898;1254;60463;-66
2023/11/02 08:23:58;;;;;;;3.70;2.50;;;;;;;11.59;58.23;99953.86;105635;1254;64090;-69
2023/11/02 08:26:25;;;;;;;23.00;20.80;;;;;;;11.63;57.74;99960.88;106782;1254;62137;-67
2023/11/02 08:28:52;;;;;;;4.70;3.70;;;;;;;11.67;57.51;99963.89;109037;1254;62494;-70
2023/11/02 08:31:23;;;;;;;3.10;2.30;;;;;;;11.72;56.98;99962.08;109068;1254;58379;-68
2023/11/02 08:33:51;;;;;;;159.80;144.20;;;;;;;11.77;57.17;99960.35;108896;1254;58469;-74
2023/11/02 08:36:19;;;;;;;11.40;10.30;;;;;;;11.85;57.00;99963.70;108924;1254;65314;-74
2023/11/02 08:38:47;;;;;;;31.50;28.90;;;;;;;11.93;56.86;99965.11;109104;1254;58646;-74
2023/11/02 08:41:21;;;;;;;4.50;4.00;;;;;;;12.01;56.38;99966.96;109053;1254;62477;-78
2023/11/02 08:43:48;;;;;;;3.50;2.40;;;;;;;12.09;56.05;99966.27;108885;1254;58352;-74
2023/11/02 08:46:16;;;;;;;2.60;1.80;;;;;;;12.18;55.80;99964.23;109010;1254;58491;-71
2023/11/02 08:48:54;;;;;;;2.40;1.90;;;;;;;12.25;54.91;99958.27;108515;1256;66951;-71
2023/11/02 08:51:30;;;;;;;20.50;18.50;;;;;;;12.28;54.73;99959.22;106956;1254;60540;-73
2023/11/02 08:53:59;;;;;;;8.60;4.30;;;;;;;12.29;54.86;99956.20;107236;1254;65704;-71
2023/11/02 08:56:30;;;;;;;6.90;5.00;;;;;;;12.36;55.00;99953.14;105757;1256;60550;-73
2023/11/02 08:59:00;;;;;;;5.90;3.60;;;;;;;12.47;55.14;99948.40;105930;1260;60524;-75
2023/11/02 09:01:28;;;;;;;5.90;2.70;;;;;;;12.56;54.59;99948.23;105368;1260;66870;-74
2023/11/02 09:03:56;;;;;;;11.00;8.00;;;;;;;12.64;54.67;99945.05;106462;1254;60895;-75
2023/11/02 09:06:24;;;;;;;9.50;6.60;;;;;;;12.72;54.38;99940.05;105891;1254;62588;-76
2023/11/02 09:08:53;;;;;;;117.30;106.00;;;;;;;12.76;54.29;99937.66;106086;1255;60355;-71
2023/11/02 09:11:20;;;;;;;16.10;14.50;;;;;;;12.83;54.28;99934.52;105904;1254;60643;-69
2023/11/02 09:13:47;;;;;;;5.80;4.00;;;;;;;12.96;54.17;99932.73;106114;1254;65094;-73
2023/11/02 09:16:14;;;;;;;4.00;3.40;;;;;;;13.10;54.51;99935.31;105771;1264;60323;-69
2023/11/02 09:18:41;;;;;;;7.80;4.10;;;;;;;13.26;54.51;99931.94;105511;1254;65522;-69
2023/11/02 09:21:08;;;;;;;5.80;2.80;;;;;;;13.43;53.98;99927.31;105727;1256;60582;-73
2023/11/02 09:23:37;;;;;;;4.20;3.10;;;;;;;13.55;53.33;99928.55;105686;1261;59162;-70
2023/11/02 09:26:05;;;;;;;5.80;2.60;;;;;;;13.68;53.20;99920.23;105684;1254;65011;-71
2023/11/02 09:28:33;;;;;;;2.40;1.70;;;;;;;13.81;52.98;99912.76;105804;1262;60560;-68
2023/11/02 09:31:00;;;;;;;2.70;1.90;;;;;;;13.98;52.99;99911.15;105678;1257;64790;-70
2023/11/02 09:33:27;;;;;;;2.10;1.70;;;;;;;14.16;52.02;99906.92;105711;1259;60448;-70
2023/11/02 09:35:54;;;;;;;5.70;2.40;;;;;;;14.27;51.56;99905.41;105913;1254;60549;-69
2023/11/02 09:38:22;;;;;;;2.70;1.90;;;;;;;14.35;50.96;99907.91;105721;1260;66797;-72
2023/11/02 09:40:49;;;;;;;3.40;1.90;;;;;;;14.43;50.76;99907.13;105935;1254;60530;-71
2023/11/02 09:43:15;;;;;;;3.10;1.90;;;;;;;14.53;51.32;99902.16;106212;1254;63841;-71
2023/11/02 09:45:43;;;;;;;4.20;2.30;;;;;;;14.70;50.98;99902.04;105776;1256;60455;-73
2023/11/02 09:48:11;;;;;;;2.30;1.60;;;;;;;14.84;50.47;99901.30;105776;1259;60445;-70
2023/11/02 09:50:38;;;;;;;4.70;2.30;;;;;;;14.94;49.85;99900.23;105780;1259;65359;-71
2023/11/02 09:53:05;;;;;;;4.80;3.60;;;;;;;14.98;49.55;99896.64;105736;1259;60469;-74
2023/11/02 09:55:32;;;;;;;13.00;7.40;;;;;;;15.06;49.94;99899.70;105722;1255;63915;-70
2023/11/02 09:57:58;;;;;;;4.40;2.70;;;;;;;15.20;49.51;99895.58;105778;1253;60549;-69
2023/11/02 10:00:25;;;;;;;4.70;2.90;;;;;;;15.28;49.16;99898.19;105774;1255;60454;-70
2023/11/02 10:02:55;;;;;;;2.40;1.60;;;;;;;15.39;49.10;99896.17;105743;1259;65077;-68
2023/11/02 10:05:26;;;;;;;4.50;2.10;;;;;;;15.48;48.97;99892.16;105783;1254;60472;-71
2023/11/02 10:07:56;;;;;;;2.30;2.00;;;;;;;15.50;48.52;99892.63;105657;1256;64431;-68
2023/11/02 10:10:23;;;;;;;3.10;1.90;;;;;;;15.52;48.37;99893.50;105843;1254;60470;-68
2023/11/02 10:12:51;;;;;;;2.40;1.70;;;;;;;15.57;48.17;99897.20;105633;1256;60610;-72
2023/11/02 10:15:18;;;;;;;13.10;9.00;;;;;;;15.56;47.61;99893.45;105579;1257;66835;-72
2023/11/02 10:17:45;;;;;;;10.30;2.20;;;;;;;15.59;48.19;99895.31;105761;1259;68388;-69
2023/11/02 10:20:14;;;;;;;2.50;1.70;;;;;;;15.70;47.51;99898.37;105785;1254;65943;-70
2023/11/02 10:22:57;;;;;;;3.00;1.50;;;;;;;15.77;47.35;99897.23;105821;1262;60527;-68
2023/11/02 10:25:24;;;;;;;2.90;1.40;;;;;;;15.83;47.18;99891.98;105372;1257;60329;-69
2023/11/02 10:27:51;;;;;;;4.70;1.60;;;;;;;15.87;47.26;99892.77;105528;1257;67067;-70
2023/11/02 10:30:18;;;;;;;4.70;3.50;;;;;;;15.97;48.43;99892.02;105493;1261;61187;-71
2023/11/02 10:32:46;;;;;;;4.00;2.50;;;;;;;16.19;48.52;99892.73;105455;1256;66202;-71
2023/11/02 10:35:14;;;;;;;9.30;4.30;;;;;;;16.43;48.05;99892.06;105335;1262;60467;-70
2023/11/02 10:37:41;;;;;;;178.10;160.60;;;;;;;16.62;47.61;99893.13;105166;1256;61711;-71
2023/11/02 10:40:10;;;;;;;8.20;7.40;;;;;;;16.72;46.31;99898.27;105751;1257;77162;-70
2023/11/02 10:42:38;;;;;;;5.00;4.30;;;;;;;16.70;46.48;99892.38;107135;1254;66130;-70
2023/11/02 10:45:06;;;;;;;8.00;6.80;;;;;;;16.76;46.16;99895.08;105509;1254;65642;-72
2023/11/02 10:47:34;;;;;;;33.90;30.70;;;;;;;16.81;46.13;99897.23;105759;1256;60501;-71
2023/11/02 10:50:01;;;;;;;35.10;31.60;;;;;;;16.85;46.03;99897.64;105844;1254;60403;-70
2023/11/02 10:52:46;;;;;;;3.60;2.90;;;;;;;16.96;46.36;99897.75;105402;1254;66756;-69
2023/11/02 10:55:26;;;;;;;4.40;2.30;;;;;;;17.05;45.68;99896.40;105708;1260;60531;-71
2023/11/02 10:57:53;;;;;;;3.30;1.90;;;;;;;16.95;45.53;99899.20;105868;1255;65862;-73
2023/11/02 11:00:22;;;;;;;4.30;2.60;;;;;;;16.72;45.58;99896.69;107271;1254;60460;-71
2023/11/02 11:02:49;;;;;;;6.20;5.50;;;;;;;16.52;45.79;99900.48;105832;1254;60646;-69
2023/11/02 11:05:18;;;;;;;8.50;7.70;;;;;;;16.42;46.69;99900.34;105423;1257;67165;-71
2023/11/02 11:07:45;;;;;;;3.30;2.30;;;;;;;16.49;46.67;99902.91;105706;1255;60549;-71
2023/11/02 11:10:12;;;;;;;2.70;1.70;;;;;;;16.62;46.72;99899.31;105495;1256;65785;-73
2023/11/02 11:12:40;;;;;;;3.40;2.40;;;;;;;16.77;46.62;99892.34;105998;1259;60365;-70
2023/11/02 11:15:10;;;;;;;8.00;4.50;;;;;;;16.94;46.32;99892.66;105840;1262;60399;-70
2023/11/02 11:17:45;;;;;;;3.30;2.30;;;;;;;17.15;46.19;99888.02;105801;1260;75406;-70
2023/11/02 11:20:12;;;;;;;2.30;1.70;;;;;;;17.29;45.14;99887.89;105913;1254;60525;-71
2023/11/02 11:22:40;;;;;;;1.80;1.50;;;;;;;17.33;45.11;99890.61;105685;1256;65823;-74
2023/11/02 11:25:06;;;;;;;3.10;1.60;;;;;;;17.34;44.71;99889.98;105770;1254;60454;-71
2023/11/02 11:27:35;;;;;;;11.00;9.70;;;;;;;17.34;44.88;99887.02;105853;1257;60565;-72
2023/11/02 11:30:27;;;;;;;8.40;7.50;;;;;;;17.39;45.09;99884.69;105826;1254;72922;-72
2023/11/02 11:32:54;;;;;;;61.40;54.90;;;;;;;17.54;44.94;99879.50;105703;1254;60375;-71
2023/11/02 11:35:23;;;;;;;19.30;16.90;;;;;;;17.78;44.87;99875.90;105946;1254;64545;-76
2023/11/02 11:37:57;;;;;;;38.30;34.30;;;;;;;17.97;44.35;99867.95;105786;1258;60528;-72
2023/11/02 11:40:23;;;;;;;21.80;19.70;;;;;;;18.14;43.74;99868.41;105869;1254;60340;-73
2023/11/02 11:43:12;;;;;;;7.60;6.80;;;;;;;18.24;43.22;99865.86;105918;1254;64704;-77